sensor_id;sensor_type;location;lat;lon;timestamp;P1;durP1;ratioP1;P2;durP2;ratioP2
71108;SDS011;59614;51.012;-1.648;2022-12-18T00:01:32;25.02;;;12.63;;
71108;SDS011;59614;51.012;-1.648;2022-12-18T00:03:59;23.90;;;11.52;;
71108;SDS011;59614;51.012;-1.648;2022-12-18T00:06:27;24.60;;;11.93;;
71108;SDS011;59614;51.012;-1.648;2022-12-18T00:08:55;26.85;;;12.63;;
71108;SDS011;59614;51.012;-1.648;2022-12-18T00:11:23;25.20;;;12.93;;
71108;SDS011;59614;51.012;-1.648;2022-12-18T00:13:50;27.17;;;13.05;;
71108;SDS011;59614;51.012;-1.648;2022-12-18T00:16:17;25.42;;;11.75;;
71108;SDS011;59614;51.012;-1.648;2022-12-18T00:18:46;26.63;;;12.98;;
71108;SDS011;59614;51.012;-1.648;2022-12-18T00:21:12;27.42;;;12.98;;
71108;SDS011;59614;51.012;-1.648;2022-12-18T00:23:38;31.35;;;12.88;;
71108;SDS011;59614;51.012;-1.648;2022-12-18T00:26:06;32.53;;;13.85;;
71108;SDS011;59614;51.012;-1.648;2022-12-18T00:28:35;29.48;;;12.23;;
71108;SDS011;59614;51.012;-1.648;2022-12-18T00:31:05;32.42;;;12.90;;
71108;SDS011;59614;51.012;-1.648;2022-12-18T00:33:32;33.08;;;13.18;;
71108;SDS011;59614;51.012;-1.648;2022-12-18T00:36:05;29.45;;;13.52;;
71108;SDS011;59614;51.012;-1.648;2022-12-18T00:38:33;32.70;;;12.35;;
71108;SDS011;59614;51.012;-1.648;2022-12-18T00:40:59;30.33;;;13.68;;
71108;SDS011;59614;51.012;-1.648;2022-12-18T00:43:26;31.33;;;12.63;;
71108;SDS011;59614;51.012;-1.648;2022-12-18T00:45:51;26.10;;;12.48;;
71108;SDS011;59614;51.012;-1.648;2022-12-18T00:48:17;26.45;;;13.02;;
71108;SDS011;59614;51.012;-1.648;2022-12-18T00:50:43;39.85;;;14.23;;
71108;SDS011;59614;51.012;-1.648;2022-12-18T00:53:11;25.52;;;13.00;;
71108;SDS011;59614;51.012;-1.648;2022-12-18T00:55:37;28.23;;;13.35;;
71108;SDS011;59614;51.012;-1.648;2022-12-18T00:58:04;27.42;;;13.68;;
71108;SDS011;59614;51.012;-1.648;2022-12-18T01:00:29;33.00;;;13.48;;
71108;SDS011;59614;51.012;-1.648;2022-12-18T01:02:54;27.95;;;13.55;;
71108;SDS011;59614;51.012;-1.648;2022-12-18T01:05:20;27.48;;;12.63;;
71108;SDS011;59614;51.012;-1.648;2022-12-18T01:07:45;29.30;;;13.65;;
71108;SDS011;59614;51.012;-1.648;2022-12-18T01:10:12;27.25;;;13.00;;
71108;SDS011;59614;51.012;-1.648;2022-12-18T01:12:38;29.65;;;12.90;;
71108;SDS011;59614;51.012;-1.648;2022-12-18T01:15:04;26.52;;;12.80;;
71108;SDS011;59614;51.012;-1.648;2022-12-18T01:17:31;28.13;;;13.07;;
71108;SDS011;59614;51.012;-1.648;2022-12-18T01:19:57;29.80;;;13.23;;
71108;SDS011;59614;51.012;-1.648;2022-12-18T01:22:22;26.52;;;13.15;;
71108;SDS011;59614;51.012;-1.648;2022-12-18T01:24:48;27.88;;;12.75;;
71108;SDS011;59614;51.012;-1.648;2022-12-18T01:27:13;33.58;;;12.57;;
71108;SDS011;59614;51.012;-1.648;2022-12-18T01:29:39;24.67;;;12.10;;
71108;SDS011;59614;51.012;-1.648;2022-12-18T01:32:04;28.65;;;12.15;;
71108;SDS011;59614;51.012;-1.648;2022-12-18T01:34:30;23.92;;;12.15;;
71108;SDS011;59614;51.012;-1.648;2022-12-18T01:36:55;23.70;;;12.00;;
71108;SDS011;59614;51.012;-1.648;2022-12-18T01:39:21;23.75;;;10.88;;
71108;SDS011;59614;51.012;-1.648;2022-12-18T01:41:46;23.75;;;11.68;;
71108;SDS011;59614;51.012;-1.648;2022-12-18T01:50:10;27.90;;;11.77;;
71108;SDS011;59614;51.012;-1.648;2022-12-18T01:52:42;26.85;;;11.18;;
71108;SDS011;59614;51.012;-1.648;2022-12-18T01:55:11;25.10;;;11.63;;
71108;SDS011;59614;51.012;-1.648;2022-12-18T01:57:39;24.05;;;10.82;;
71108;SDS011;59614;51.012;-1.648;2022-12-18T02:00:19;23.90;;;11.50;;
71108;SDS011;59614;51.012;-1.648;2022-12-18T02:02:45;20.40;;;10.93;;
71108;SDS011;59614;51.012;-1.648;2022-12-18T02:05:12;23.58;;;11.55;;
71108;SDS011;59614;51.012;-1.648;2022-12-18T02:13:14;27.88;;;11.68;;
71108;SDS011;59614;51.012;-1.648;2022-12-18T02:16:21;25.73;;;11.65;;
71108;SDS011;59614;51.012;-1.648;2022-12-18T02:18:56;35.22;;;13.68;;
71108;SDS011;59614;51.012;-1.648;2022-12-18T02:26:34;27.23;;;12.35;;
71108;SDS011;59614;51.012;-1.648;2022-12-18T02:31:29;23.92;;;12.52;;
71108;SDS011;59614;51.012;-1.648;2022-12-18T02:34:00;26.80;;;12.70;;
71108;SDS011;59614;51.012;-1.648;2022-12-18T02:36:28;29.85;;;13.00;;
71108;SDS011;59614;51.012;-1.648;2022-12-18T02:38:55;25.80;;;11.98;;
71108;SDS011;59614;51.012;-1.648;2022-12-18T02:41:24;25.77;;;12.30;;
71108;SDS011;59614;51.012;-1.648;2022-12-18T02:43:53;29.23;;;13.25;;
71108;SDS011;59614;51.012;-1.648;2022-12-18T02:46:30;29.42;;;12.95;;
71108;SDS011;59614;51.012;-1.648;2022-12-18T02:49:00;34.95;;;13.32;;
71108;SDS011;59614;51.012;-1.648;2022-12-18T02:52:05;28.02;;;13.60;;
71108;SDS011;59614;51.012;-1.648;2022-12-18T02:57:40;26.73;;;13.32;;
71108;SDS011;59614;51.012;-1.648;2022-12-18T03:00:24;24.40;;;13.50;;
71108;SDS011;59614;51.012;-1.648;2022-12-18T03:02:59;32.67;;;13.63;;
71108;SDS011;59614;51.012;-1.648;2022-12-18T03:05:39;32.75;;;13.57;;
71108;SDS011;59614;51.012;-1.648;2022-12-18T03:08:09;30.50;;;13.77;;
71108;SDS011;59614;51.012;-1.648;2022-12-18T03:10:41;32.42;;;14.13;;
71108;SDS011;59614;51.012;-1.648;2022-12-18T03:13:12;31.08;;;14.00;;
71108;SDS011;59614;51.012;-1.648;2022-12-18T03:15:45;32.38;;;14.50;;
71108;SDS011;59614;51.012;-1.648;2022-12-18T03:18:18;32.08;;;15.32;;
71108;SDS011;59614;51.012;-1.648;2022-12-18T03:20:49;35.83;;;15.77;;
71108;SDS011;59614;51.012;-1.648;2022-12-18T03:23:18;33.95;;;15.40;;
71108;SDS011;59614;51.012;-1.648;2022-12-18T03:25:47;30.70;;;15.32;;
71108;SDS011;59614;51.012;-1.648;2022-12-18T03:28:17;33.35;;;13.90;;
71108;SDS011;59614;51.012;-1.648;2022-12-18T03:30:47;33.08;;;15.20;;
71108;SDS011;59614;51.012;-1.648;2022-12-18T03:33:19;30.70;;;14.82;;
71108;SDS011;59614;51.012;-1.648;2022-12-18T03:35:51;34.17;;;15.25;;
71108;SDS011;59614;51.012;-1.648;2022-12-18T03:38:17;28.52;;;13.95;;
71108;SDS011;59614;51.012;-1.648;2022-12-18T03:40:45;34.85;;;16.00;;
71108;SDS011;59614;51.012;-1.648;2022-12-18T03:48:38;30.25;;;13.60;;
71108;SDS011;59614;51.012;-1.648;2022-12-18T03:51:10;33.38;;;14.63;;
71108;SDS011;59614;51.012;-1.648;2022-12-18T03:53:48;31.00;;;14.63;;
71108;SDS011;59614;51.012;-1.648;2022-12-18T03:56:19;33.15;;;14.07;;
71108;SDS011;59614;51.012;-1.648;2022-12-18T03:58:50;34.22;;;14.38;;
71108;SDS011;59614;51.012;-1.648;2022-12-18T04:01:17;29.33;;;14.68;;
71108;SDS011;59614;51.012;-1.648;2022-12-18T04:03:48;31.05;;;14.82;;
71108;SDS011;59614;51.012;-1.648;2022-12-18T04:06:15;40.22;;;16.48;;
71108;SDS011;59614;51.012;-1.648;2022-12-18T04:08:41;35.17;;;14.80;;
71108;SDS011;59614;51.012;-1.648;2022-12-18T04:11:08;29.55;;;14.65;;
71108;SDS011;59614;51.012;-1.648;2022-12-18T04:13:35;39.33;;;15.80;;
71108;SDS011;59614;51.012;-1.648;2022-12-18T04:16:01;37.22;;;17.83;;
71108;SDS011;59614;51.012;-1.648;2022-12-18T04:18:27;30.15;;;13.32;;
71108;SDS011;59614;51.012;-1.648;2022-12-18T04:20:52;27.92;;;14.70;;
71108;SDS011;59614;51.012;-1.648;2022-12-18T04:23:17;26.95;;;14.82;;
71108;SDS011;59614;51.012;-1.648;2022-12-18T04:25:43;28.95;;;13.57;;
71108;SDS011;59614;51.012;-1.648;2022-12-18T04:28:08;32.53;;;13.52;;
71108;SDS011;59614;51.012;-1.648;2022-12-18T04:30:34;28.67;;;12.70;;
71108;SDS011;59614;51.012;-1.648;2022-12-18T04:32:59;27.52;;;12.57;;
71108;SDS011;59614;51.012;-1.648;2022-12-18T04:35:25;27.00;;;13.63;;
71108;SDS011;59614;51.012;-1.648;2022-12-18T04:37:50;22.58;;;12.45;;
71108;SDS011;59614;51.012;-1.648;2022-12-18T04:40:15;28.15;;;12.98;;
71108;SDS011;59614;51.012;-1.648;2022-12-18T04:42:41;27.92;;;12.93;;
71108;SDS011;59614;51.012;-1.648;2022-12-18T04:45:07;29.30;;;12.18;;
71108;SDS011;59614;51.012;-1.648;2022-12-18T04:47:33;25.55;;;12.57;;
71108;SDS011;59614;51.012;-1.648;2022-12-18T04:49:58;28.08;;;13.00;;
71108;SDS011;59614;51.012;-1.648;2022-12-18T04:52:24;26.00;;;12.65;;
71108;SDS011;59614;51.012;-1.648;2022-12-18T04:54:49;28.50;;;13.82;;
71108;SDS011;59614;51.012;-1.648;2022-12-18T04:57:15;35.50;;;13.82;;
71108;SDS011;59614;51.012;-1.648;2022-12-18T04:59:40;28.60;;;12.60;;
71108;SDS011;59614;51.012;-1.648;2022-12-18T05:02:06;28.90;;;13.02;;
71108;SDS011;59614;51.012;-1.648;2022-12-18T05:04:31;22.33;;;12.48;;
71108;SDS011;59614;51.012;-1.648;2022-12-18T05:06:57;29.50;;;12.52;;
71108;SDS011;59614;51.012;-1.648;2022-12-18T05:09:23;26.40;;;12.02;;
71108;SDS011;59614;51.012;-1.648;2022-12-18T05:11:48;21.67;;;11.93;;
71108;SDS011;59614;51.012;-1.648;2022-12-18T05:14:14;26.63;;;12.60;;
71108;SDS011;59614;51.012;-1.648;2022-12-18T05:16:39;27.20;;;11.18;;
71108;SDS011;59614;51.012;-1.648;2022-12-18T05:19:05;29.20;;;12.23;;
71108;SDS011;59614;51.012;-1.648;2022-12-18T05:21:30;21.15;;;11.18;;
71108;SDS011;59614;51.012;-1.648;2022-12-18T05:23:55;24.08;;;11.25;;
71108;SDS011;59614;51.012;-1.648;2022-12-18T05:26:21;24.67;;;12.25;;
71108;SDS011;59614;51.012;-1.648;2022-12-18T05:28:46;22.65;;;11.85;;
71108;SDS011;59614;51.012;-1.648;2022-12-18T05:31:12;24.95;;;11.60;;
71108;SDS011;59614;51.012;-1.648;2022-12-18T05:33:37;25.27;;;12.40;;
71108;SDS011;59614;51.012;-1.648;2022-12-18T05:36:04;33.60;;;13.25;;
71108;SDS011;59614;51.012;-1.648;2022-12-18T05:38:32;21.88;;;12.13;;
71108;SDS011;59614;51.012;-1.648;2022-12-18T05:40:59;24.80;;;11.57;;
71108;SDS011;59614;51.012;-1.648;2022-12-18T05:43:25;22.13;;;11.88;;
71108;SDS011;59614;51.012;-1.648;2022-12-18T05:45:52;24.95;;;12.32;;
71108;SDS011;59614;51.012;-1.648;2022-12-18T05:48:18;25.70;;;11.80;;
71108;SDS011;59614;51.012;-1.648;2022-12-18T05:50:45;23.55;;;11.52;;
71108;SDS011;59614;51.012;-1.648;2022-12-18T05:53:12;26.33;;;13.05;;
71108;SDS011;59614;51.012;-1.648;2022-12-18T05:55:39;24.50;;;11.82;;
71108;SDS011;59614;51.012;-1.648;2022-12-18T05:58:07;29.52;;;11.55;;
71108;SDS011;59614;51.012;-1.648;2022-12-18T06:00:35;25.25;;;12.02;;
71108;SDS011;59614;51.012;-1.648;2022-12-18T06:03:05;20.67;;;11.38;;
71108;SDS011;59614;51.012;-1.648;2022-12-18T06:05:34;23.85;;;11.25;;
71108;SDS011;59614;51.012;-1.648;2022-12-18T06:08:01;24.05;;;11.38;;
71108;SDS011;59614;51.012;-1.648;2022-12-18T06:10:27;21.00;;;10.80;;
71108;SDS011;59614;51.012;-1.648;2022-12-18T06:12:52;33.25;;;11.98;;
71108;SDS011;59614;51.012;-1.648;2022-12-18T06:15:17;26.52;;;11.70;;
71108;SDS011;59614;51.012;-1.648;2022-12-18T06:17:43;23.27;;;11.48;;
71108;SDS011;59614;51.012;-1.648;2022-12-18T06:20:08;25.90;;;11.63;;
71108;SDS011;59614;51.012;-1.648;2022-12-18T06:22:34;23.08;;;11.35;;
71108;SDS011;59614;51.012;-1.648;2022-12-18T06:25:00;25.92;;;11.98;;
71108;SDS011;59614;51.012;-1.648;2022-12-18T06:27:25;28.60;;;11.23;;
71108;SDS011;59614;51.012;-1.648;2022-12-18T06:29:51;24.17;;;10.85;;
71108;SDS011;59614;51.012;-1.648;2022-12-18T06:32:17;24.10;;;10.95;;
71108;SDS011;59614;51.012;-1.648;2022-12-18T06:34:42;21.10;;;10.20;;
71108;SDS011;59614;51.012;-1.648;2022-12-18T06:37:07;22.30;;;9.45;;
71108;SDS011;59614;51.012;-1.648;2022-12-18T06:39:33;26.55;;;10.32;;
71108;SDS011;59614;51.012;-1.648;2022-12-18T06:41:58;23.42;;;9.75;;
71108;SDS011;59614;51.012;-1.648;2022-12-18T06:44:24;21.10;;;9.93;;
71108;SDS011;59614;51.012;-1.648;2022-12-18T06:46:49;24.27;;;9.88;;
71108;SDS011;59614;51.012;-1.648;2022-12-18T06:49:15;20.17;;;9.40;;
71108;SDS011;59614;51.012;-1.648;2022-12-18T06:51:41;22.40;;;9.60;;
71108;SDS011;59614;51.012;-1.648;2022-12-18T06:54:06;26.85;;;10.07;;
71108;SDS011;59614;51.012;-1.648;2022-12-18T06:56:31;17.67;;;8.50;;
71108;SDS011;59614;51.012;-1.648;2022-12-18T06:58:57;19.17;;;8.63;;
71108;SDS011;59614;51.012;-1.648;2022-12-18T07:01:22;15.73;;;8.70;;
71108;SDS011;59614;51.012;-1.648;2022-12-18T07:03:51;18.45;;;9.18;;
71108;SDS011;59614;51.012;-1.648;2022-12-18T07:06:19;19.63;;;8.60;;
71108;SDS011;59614;51.012;-1.648;2022-12-18T07:08:46;18.65;;;9.15;;
71108;SDS011;59614;51.012;-1.648;2022-12-18T07:11:12;24.17;;;9.40;;
71108;SDS011;59614;51.012;-1.648;2022-12-18T07:13:38;25.45;;;9.65;;
71108;SDS011;59614;51.012;-1.648;2022-12-18T07:16:08;16.52;;;8.55;;
71108;SDS011;59614;51.012;-1.648;2022-12-18T07:18:38;16.92;;;8.40;;
71108;SDS011;59614;51.012;-1.648;2022-12-18T07:21:04;19.17;;;8.02;;
71108;SDS011;59614;51.012;-1.648;2022-12-18T07:23:31;23.35;;;9.18;;
71108;SDS011;59614;51.012;-1.648;2022-12-18T07:26:00;22.60;;;9.13;;
71108;SDS011;59614;51.012;-1.648;2022-12-18T07:28:27;15.88;;;8.57;;
71108;SDS011;59614;51.012;-1.648;2022-12-18T07:30:52;18.35;;;9.07;;
71108;SDS011;59614;51.012;-1.648;2022-12-18T07:33:18;17.70;;;9.25;;
71108;SDS011;59614;51.012;-1.648;2022-12-18T07:35:44;17.10;;;8.55;;
71108;SDS011;59614;51.012;-1.648;2022-12-18T07:38:09;19.10;;;8.52;;
71108;SDS011;59614;51.012;-1.648;2022-12-18T07:40:34;18.52;;;8.57;;
71108;SDS011;59614;51.012;-1.648;2022-12-18T07:43:00;19.35;;;9.02;;
71108;SDS011;59614;51.012;-1.648;2022-12-18T07:45:25;18.52;;;9.52;;
71108;SDS011;59614;51.012;-1.648;2022-12-18T07:47:51;19.15;;;9.50;;
71108;SDS011;59614;51.012;-1.648;2022-12-18T07:50:16;21.98;;;9.05;;
71108;SDS011;59614;51.012;-1.648;2022-12-18T07:52:42;31.98;;;10.80;;
71108;SDS011;59614;51.012;-1.648;2022-12-18T07:55:07;23.13;;;9.23;;
71108;SDS011;59614;51.012;-1.648;2022-12-18T07:57:33;22.23;;;9.20;;
71108;SDS011;59614;51.012;-1.648;2022-12-18T07:59:59;22.08;;;9.07;;
71108;SDS011;59614;51.012;-1.648;2022-12-18T08:02:24;21.13;;;10.07;;
71108;SDS011;59614;51.012;-1.648;2022-12-18T08:04:49;20.95;;;9.50;;
71108;SDS011;59614;51.012;-1.648;2022-12-18T08:07:15;20.35;;;9.40;;
71108;SDS011;59614;51.012;-1.648;2022-12-18T08:09:40;19.27;;;9.05;;
71108;SDS011;59614;51.012;-1.648;2022-12-18T08:12:06;24.63;;;10.13;;
71108;SDS011;59614;51.012;-1.648;2022-12-18T08:14:31;24.75;;;10.23;;
71108;SDS011;59614;51.012;-1.648;2022-12-18T08:16:57;22.50;;;11.02;;
71108;SDS011;59614;51.012;-1.648;2022-12-18T08:19:22;24.63;;;10.50;;
71108;SDS011;59614;51.012;-1.648;2022-12-18T08:21:48;27.10;;;11.25;;
71108;SDS011;59614;51.012;-1.648;2022-12-18T08:24:13;19.50;;;10.00;;
71108;SDS011;59614;51.012;-1.648;2022-12-18T08:26:39;25.15;;;11.68;;
71108;SDS011;59614;51.012;-1.648;2022-12-18T08:29:04;23.63;;;10.45;;
71108;SDS011;59614;51.012;-1.648;2022-12-18T08:31:30;26.10;;;11.27;;
71108;SDS011;59614;51.012;-1.648;2022-12-18T08:33:56;28.33;;;11.73;;
71108;SDS011;59614;51.012;-1.648;2022-12-18T08:36:22;25.52;;;11.45;;
71108;SDS011;59614;51.012;-1.648;2022-12-18T08:38:48;26.40;;;11.95;;
71108;SDS011;59614;51.012;-1.648;2022-12-18T08:41:14;26.63;;;12.10;;
71108;SDS011;59614;51.012;-1.648;2022-12-18T08:43:41;23.70;;;12.20;;
71108;SDS011;59614;51.012;-1.648;2022-12-18T08:46:26;24.35;;;12.32;;
71108;SDS011;59614;51.012;-1.648;2022-12-18T08:48:53;29.77;;;13.30;;
71108;SDS011;59614;51.012;-1.648;2022-12-18T08:51:20;27.30;;;12.32;;
71108;SDS011;59614;51.012;-1.648;2022-12-18T08:53:46;30.42;;;13.02;;
71108;SDS011;59614;51.012;-1.648;2022-12-18T08:56:12;25.15;;;12.35;;
71108;SDS011;59614;51.012;-1.648;2022-12-18T08:58:37;26.40;;;12.57;;
71108;SDS011;59614;51.012;-1.648;2022-12-18T09:01:04;25.23;;;13.55;;
71108;SDS011;59614;51.012;-1.648;2022-12-18T09:03:31;31.73;;;13.90;;
71108;SDS011;59614;51.012;-1.648;2022-12-18T09:05:57;30.33;;;13.93;;
71108;SDS011;59614;51.012;-1.648;2022-12-18T09:08:24;27.67;;;13.75;;
71108;SDS011;59614;51.012;-1.648;2022-12-18T09:10:50;35.85;;;13.88;;
71108;SDS011;59614;51.012;-1.648;2022-12-18T09:13:16;28.48;;;14.13;;
71108;SDS011;59614;51.012;-1.648;2022-12-18T09:15:49;36.03;;;14.02;;
71108;SDS011;59614;51.012;-1.648;2022-12-18T09:18:17;35.13;;;15.05;;
71108;SDS011;59614;51.012;-1.648;2022-12-18T09:20:44;34.85;;;15.65;;
71108;SDS011;59614;51.012;-1.648;2022-12-18T09:23:10;33.55;;;15.50;;
71108;SDS011;59614;51.012;-1.648;2022-12-18T09:25:36;26.23;;;13.35;;
71108;SDS011;59614;51.012;-1.648;2022-12-18T09:28:03;26.92;;;13.98;;
71108;SDS011;59614;51.012;-1.648;2022-12-18T09:30:36;27.42;;;14.20;;
71108;SDS011;59614;51.012;-1.648;2022-12-18T09:33:03;31.77;;;14.35;;
71108;SDS011;59614;51.012;-1.648;2022-12-18T09:35:28;34.25;;;15.05;;
71108;SDS011;59614;51.012;-1.648;2022-12-18T09:37:54;29.65;;;15.23;;
71108;SDS011;59614;51.012;-1.648;2022-12-18T09:40:21;32.80;;;15.52;;
71108;SDS011;59614;51.012;-1.648;2022-12-18T09:42:51;34.53;;;15.38;;
71108;SDS011;59614;51.012;-1.648;2022-12-18T09:45:20;43.15;;;16.75;;
71108;SDS011;59614;51.012;-1.648;2022-12-18T09:47:46;34.00;;;14.77;;
71108;SDS011;59614;51.012;-1.648;2022-12-18T09:52:56;37.72;;;16.23;;
71108;SDS011;59614;51.012;-1.648;2022-12-18T09:55:28;28.00;;;14.95;;
71108;SDS011;59614;51.012;-1.648;2022-12-18T09:58:02;41.10;;;16.58;;
71108;SDS011;59614;51.012;-1.648;2022-12-18T10:00:35;37.30;;;16.00;;
71108;SDS011;59614;51.012;-1.648;2022-12-18T10:03:03;43.80;;;16.48;;
71108;SDS011;59614;51.012;-1.648;2022-12-18T10:10:51;33.53;;;16.08;;
71108;SDS011;59614;51.012;-1.648;2022-12-18T10:21:18;36.45;;;16.92;;
71108;SDS011;59614;51.012;-1.648;2022-12-18T10:26:33;45.80;;;21.20;;
71108;SDS011;59614;51.012;-1.648;2022-12-18T10:28:59;44.92;;;20.83;;
71108;SDS011;59614;51.012;-1.648;2022-12-18T10:31:25;45.15;;;19.45;;
71108;SDS011;59614;51.012;-1.648;2022-12-18T10:33:51;60.80;;;21.58;;
71108;SDS011;59614;51.012;-1.648;2022-12-18T10:36:18;59.15;;;25.35;;
71108;SDS011;59614;51.012;-1.648;2022-12-18T10:38:45;49.75;;;21.55;;
71108;SDS011;59614;51.012;-1.648;2022-12-18T10:43:42;52.90;;;21.63;;
71108;SDS011;59614;51.012;-1.648;2022-12-18T10:48:39;57.78;;;22.70;;
71108;SDS011;59614;51.012;-1.648;2022-12-18T10:51:05;59.25;;;20.00;;
71108;SDS011;59614;51.012;-1.648;2022-12-18T10:53:32;63.90;;;21.52;;
71108;SDS011;59614;51.012;-1.648;2022-12-18T10:56:00;59.67;;;21.25;;
71108;SDS011;59614;51.012;-1.648;2022-12-18T10:58:31;59.95;;;22.48;;
71108;SDS011;59614;51.012;-1.648;2022-12-18T11:08:41;62.40;;;22.15;;
71108;SDS011;59614;51.012;-1.648;2022-12-18T11:11:15;56.95;;;23.10;;
71108;SDS011;59614;51.012;-1.648;2022-12-18T11:16:18;69.53;;;24.23;;
71108;SDS011;59614;51.012;-1.648;2022-12-18T11:18:44;66.20;;;24.15;;
71108;SDS011;59614;51.012;-1.648;2022-12-18T11:21:11;68.05;;;23.80;;
71108;SDS011;59614;51.012;-1.648;2022-12-18T11:23:43;70.53;;;24.40;;
71108;SDS011;59614;51.012;-1.648;2022-12-18T11:26:19;65.45;;;22.50;;
71108;SDS011;59614;51.012;-1.648;2022-12-18T11:28:47;65.93;;;24.85;;
71108;SDS011;59614;51.012;-1.648;2022-12-18T11:36:45;58.13;;;22.77;;
71108;SDS011;59614;51.012;-1.648;2022-12-18T11:39:17;59.90;;;22.67;;
71108;SDS011;59614;51.012;-1.648;2022-12-18T11:41:52;65.35;;;23.60;;
71108;SDS011;59614;51.012;-1.648;2022-12-18T11:50:02;59.45;;;20.70;;
71108;SDS011;59614;51.012;-1.648;2022-12-18T11:52:36;60.80;;;20.25;;
71108;SDS011;59614;51.012;-1.648;2022-12-18T11:55:07;51.50;;;19.85;;
71108;SDS011;59614;51.012;-1.648;2022-12-18T11:57:39;53.88;;;20.55;;
71108;SDS011;59614;51.012;-1.648;2022-12-18T12:00:18;48.90;;;18.83;;
71108;SDS011;59614;51.012;-1.648;2022-12-18T12:08:21;46.63;;;16.85;;
71108;SDS011;59614;51.012;-1.648;2022-12-18T12:10:56;38.20;;;16.20;;
71108;SDS011;59614;51.012;-1.648;2022-12-18T12:13:39;44.92;;;16.85;;
71108;SDS011;59614;51.012;-1.648;2022-12-18T12:21:41;46.50;;;17.48;;
71108;SDS011;59614;51.012;-1.648;2022-12-18T12:32:40;37.70;;;15.00;;
71108;SDS011;59614;51.012;-1.648;2022-12-18T12:40:20;36.40;;;15.68;;
71108;SDS011;59614;51.012;-1.648;2022-12-18T12:42:51;34.78;;;14.23;;
71108;SDS011;59614;51.012;-1.648;2022-12-18T12:48:56;23.75;;;11.75;;
71108;SDS011;59614;51.012;-1.648;2022-12-18T12:51:25;24.58;;;12.80;;
71108;SDS011;59614;51.012;-1.648;2022-12-18T12:53:53;31.88;;;12.52;;
71108;SDS011;59614;51.012;-1.648;2022-12-18T12:56:21;28.33;;;12.45;;
71108;SDS011;59614;51.012;-1.648;2022-12-18T13:01:17;29.15;;;12.55;;
71108;SDS011;59614;51.012;-1.648;2022-12-18T13:09:31;25.25;;;10.60;;
71108;SDS011;59614;51.012;-1.648;2022-12-18T13:12:02;20.40;;;10.55;;
71108;SDS011;59614;51.012;-1.648;2022-12-18T13:14:48;23.73;;;9.57;;
71108;SDS011;59614;51.012;-1.648;2022-12-18T13:17:15;18.80;;;8.73;;
71108;SDS011;59614;51.012;-1.648;2022-12-18T13:19:44;22.63;;;9.43;;
71108;SDS011;59614;51.012;-1.648;2022-12-18T13:22:20;18.00;;;8.80;;
71108;SDS011;59614;51.012;-1.648;2022-12-18T13:24:46;17.80;;;8.40;;
71108;SDS011;59614;51.012;-1.648;2022-12-18T13:33:57;16.63;;;7.40;;
71108;SDS011;59614;51.012;-1.648;2022-12-18T13:36:12;20.20;;;8.20;;
71108;SDS011;59614;51.012;-1.648;2022-12-18T13:38:42;17.55;;;7.30;;
71108;SDS011;59614;51.012;-1.648;2022-12-18T13:43:51;17.17;;;6.78;;
71108;SDS011;59614;51.012;-1.648;2022-12-18T13:51:51;14.13;;;7.32;;
71108;SDS011;59614;51.012;-1.648;2022-12-18T13:57:00;13.88;;;6.32;;
71108;SDS011;59614;51.012;-1.648;2022-12-18T13:59:34;11.20;;;6.43;;
71108;SDS011;59614;51.012;-1.648;2022-12-18T14:04:46;12.23;;;5.88;;
71108;SDS011;59614;51.012;-1.648;2022-12-18T14:07:17;12.40;;;5.65;;
71108;SDS011;59614;51.012;-1.648;2022-12-18T14:09:46;12.90;;;6.15;;
71108;SDS011;59614;51.012;-1.648;2022-12-18T14:12:17;11.93;;;5.28;;
71108;SDS011;59614;51.012;-1.648;2022-12-18T14:15:05;11.77;;;5.25;;
71108;SDS011;59614;51.012;-1.648;2022-12-18T14:17:38;10.10;;;5.20;;
71108;SDS011;59614;51.012;-1.648;2022-12-18T14:20:04;13.32;;;5.45;;
71108;SDS011;59614;51.012;-1.648;2022-12-18T14:22:39;9.30;;;4.85;;
71108;SDS011;59614;51.012;-1.648;2022-12-18T14:27:53;7.03;;;4.90;;
71108;SDS011;59614;51.012;-1.648;2022-12-18T14:30:30;10.70;;;5.47;;
71108;SDS011;59614;51.012;-1.648;2022-12-18T14:35:27;13.70;;;5.28;;
71108;SDS011;59614;51.012;-1.648;2022-12-18T14:37:53;12.48;;;4.68;;
71108;SDS011;59614;51.012;-1.648;2022-12-18T14:40:19;9.10;;;5.10;;
71108;SDS011;59614;51.012;-1.648;2022-12-18T14:42:44;10.50;;;4.53;;
71108;SDS011;59614;51.012;-1.648;2022-12-18T14:48:18;10.20;;;3.90;;
71108;SDS011;59614;51.012;-1.648;2022-12-18T14:50:53;7.70;;;3.80;;
71108;SDS011;59614;51.012;-1.648;2022-12-18T14:53:32;11.07;;;3.83;;
71108;SDS011;59614;51.012;-1.648;2022-12-18T14:56:00;7.95;;;3.72;;
71108;SDS011;59614;51.012;-1.648;2022-12-18T14:58:27;7.90;;;3.55;;
71108;SDS011;59614;51.012;-1.648;2022-12-18T15:00:53;6.18;;;3.38;;
71108;SDS011;59614;51.012;-1.648;2022-12-18T15:03:19;6.82;;;3.75;;
71108;SDS011;59614;51.012;-1.648;2022-12-18T15:05:46;8.55;;;3.75;;
71108;SDS011;59614;51.012;-1.648;2022-12-18T15:08:29;11.43;;;3.95;;
71108;SDS011;59614;51.012;-1.648;2022-12-18T15:11:00;9.73;;;3.92;;
71108;SDS011;59614;51.012;-1.648;2022-12-18T15:13:25;8.93;;;3.58;;
71108;SDS011;59614;51.012;-1.648;2022-12-18T15:15:52;5.95;;;2.80;;
71108;SDS011;59614;51.012;-1.648;2022-12-18T15:18:21;12.57;;;3.35;;
71108;SDS011;59614;51.012;-1.648;2022-12-18T15:20:55;12.82;;;4.00;;
71108;SDS011;59614;51.012;-1.648;2022-12-18T15:26:05;6.88;;;3.83;;
71108;SDS011;59614;51.012;-1.648;2022-12-18T15:31:17;15.43;;;4.00;;
71108;SDS011;59614;51.012;-1.648;2022-12-18T15:36:17;12.38;;;6.05;;
71108;SDS011;59614;51.012;-1.648;2022-12-18T15:38:46;9.05;;;3.45;;
71108;SDS011;59614;51.012;-1.648;2022-12-18T15:41:16;10.10;;;3.55;;
71108;SDS011;59614;51.012;-1.648;2022-12-18T15:43:44;8.52;;;3.53;;
71108;SDS011;59614;51.012;-1.648;2022-12-18T15:46:12;9.40;;;3.60;;
71108;SDS011;59614;51.012;-1.648;2022-12-18T15:48:40;11.02;;;3.80;;
71108;SDS011;59614;51.012;-1.648;2022-12-18T15:51:26;12.30;;;3.85;;
71108;SDS011;59614;51.012;-1.648;2022-12-18T15:53:55;8.75;;;3.92;;
71108;SDS011;59614;51.012;-1.648;2022-12-18T15:56:23;9.85;;;4.03;;
71108;SDS011;59614;51.012;-1.648;2022-12-18T15:59:11;8.95;;;3.50;;
71108;SDS011;59614;51.012;-1.648;2022-12-18T16:01:38;12.48;;;4.15;;
71108;SDS011;59614;51.012;-1.648;2022-12-18T16:04:05;11.52;;;3.88;;
71108;SDS011;59614;51.012;-1.648;2022-12-18T16:06:30;14.48;;;4.15;;
71108;SDS011;59614;51.012;-1.648;2022-12-18T16:08:56;14.63;;;4.10;;
71108;SDS011;59614;51.012;-1.648;2022-12-18T16:14:24;15.27;;;4.00;;
71108;SDS011;59614;51.012;-1.648;2022-12-18T16:16:52;10.15;;;4.00;;
71108;SDS011;59614;51.012;-1.648;2022-12-18T16:19:19;10.15;;;4.30;;
71108;SDS011;59614;51.012;-1.648;2022-12-18T16:21:46;9.25;;;4.60;;
71108;SDS011;59614;51.012;-1.648;2022-12-18T16:24:15;12.25;;;4.68;;
71108;SDS011;59614;51.012;-1.648;2022-12-18T16:26:42;11.65;;;4.47;;
71108;SDS011;59614;51.012;-1.648;2022-12-18T16:29:08;10.88;;;4.35;;
71108;SDS011;59614;51.012;-1.648;2022-12-18T16:31:34;13.18;;;5.03;;
71108;SDS011;59614;51.012;-1.648;2022-12-18T16:34:13;10.50;;;4.50;;
71108;SDS011;59614;51.012;-1.648;2022-12-18T16:36:39;13.85;;;4.43;;
71108;SDS011;59614;51.012;-1.648;2022-12-18T16:39:05;12.27;;;4.43;;
71108;SDS011;59614;51.012;-1.648;2022-12-18T16:41:30;12.77;;;4.80;;
71108;SDS011;59614;51.012;-1.648;2022-12-18T16:43:57;17.13;;;4.55;;
71108;SDS011;59614;51.012;-1.648;2022-12-18T16:46:22;11.38;;;4.72;;
71108;SDS011;59614;51.012;-1.648;2022-12-18T16:48:48;11.43;;;4.53;;